EW8319 Weather Reports


Display with metric or nautical units.
time (UTC)temp
F
wind
direction
speed
MPH
gust
MPH
rain 1hr
in
rain 24hr
in
rain mn
in
humidity
%
barometer
mb
20201205122649 42 83 2.0 23.0 0.00 0.00 0.00 49 1020.3
20201205121647 42 107 9.0 25.0 0.00 0.00 0.00 50 1020.7
20201205120644 42 40 10.0 28.0 0.00 0.00 0.00 50 1020.7
20201205115642 42 67 7.0 30.0 0.00 0.00 0.00 50 1020.7
20201205114641 42 55 15.0 30.0 0.00 0.00 0.00 50 1021.0
20201205113642 42 51 3.0 25.0 0.00 0.00 0.00 50 1021.0
20201205112648 42 28 9.0 20.0 0.00 0.00 0.00 50 1021.3
20201205111635 42 142 2.0 17.0 0.00 0.00 0.00 50 1021.7
20201205110636 42 6 8.0 17.0 0.00 0.00 0.00 50 1021.7
20201205105631 42 55 5.0 17.0 0.00 0.00 0.00 50 1022.3
20201205104631 42 340 12.0 28.0 0.00 0.00 0.00 50 1022.0
20201205103627 42 16 16.0 25.0 0.00 0.00 0.00 50 1022.3
20201205102625 43 53 9.0 23.0 0.00 0.00 0.00 47 1022.3
20201205101643 43 23 12.0 20.0 0.00 0.00 0.00 47 1022.7
20201205100626 43 53 8.0 28.0 0.00 0.00 0.00 49 1023.0
20201205095621 43 39 5.0 25.0 0.00 0.00 0.00 50 1022.7
20201205094619 43 67 11.0 23.0 0.00 0.00 0.00 49 1022.7
20201205093616 43 76 11.0 23.0 0.00 0.00 0.00 48 1022.7
20201205092615 44 60 13.0 20.0 0.00 0.00 0.00 48 1023.0
20201205091613 44 53 4.0 17.0 0.00 0.00 0.00 49 1022.7
20201205090614 43 61 7.0 30.0 0.00 0.00 0.00 49 1023.0
20201205085609 44 75 6.0 20.0 0.00 0.00 0.00 49 1023.0
20201205084611 44 92 4.0 17.0 0.00 0.00 0.00 49 1023.4
20201205083631 44 84 5.0 17.0 0.00 0.00 0.00 49 1023.7
20201205082603 44 131 7.0 20.0 0.00 0.00 0.00 49 1024.0
20201205081613 44 72 9.0 20.0 0.00 0.00 0.00 47 1024.0
20201205080600 45 76 13.0 23.0 0.00 0.00 0.00 47 1024.0
20201205075557 45 83 9.0 17.0 0.00 0.00 0.00 47 1024.4
20201205074556 45 48 7.0 17.0 0.00 0.00 0.00 48 1024.7
20201205073601 45 116 1.0 15.0 0.00 0.00 0.00 48 1024.7
20201205072554 44 87 13.0 25.0 0.00 0.00 0.00 49 1024.7
20201205071553 44 1 7.0 15.0 0.00 0.00 0.00 49 1025.1
20201205070556 45 41 11.0 25.0 0.00 0.00 0.00 48 1024.7
20201205065602 45 149 1.0 15.0 0.00 0.00 0.00 48 1025.1
20201205064555 45 145 0.0 13.0 0.00 0.00 0.00 48 1025.4
20201205063554 44 134 0.0 8.0 0.00 0.00 0.00 50 1025.7
20201205062551 43 257 0.0 13.0 0.00 0.00 0.00 50 1025.7
20201205061551 44 90 0.0 10.0 0.00 0.00 0.00 50 1026.1
20201205060602 44 116 1.0 13.0 0.00 0.00 0.00 50 1026.1
20201205055554 44 129 1.0 15.0 0.00 0.00 0.00 50 1026.4
20201205054548 44 46 6.0 17.0 0.00 0.00 0.00 49 1026.4
20201205053548 44 84 9.0 28.0 0.00 0.00 0.00 49 1026.4
20201205052549 44 62 0.0 17.0 0.00 0.00 0.00 49 1026.4
20201205051547 44 77 8.0 17.0 0.00 0.00 0.00 50 1026.8
20201205050545 44 120 4.0 13.0 0.00 0.00 0.00 50 1026.4
20201205045548 44 81 8.0 23.0 0.00 0.00 0.00 50 1026.8
20201205044552 44 55 4.0 17.0 0.00 0.00 0.00 50 1026.4
20201205043548 44 117 7.0 20.0 0.00 0.00 0.00 50 1026.4
20201205042547 44 162 1.0 15.0 0.00 0.00 0.00 50 1026.8
20201205041545 44 92 4.0 23.0 0.00 0.00 0.00 50 1026.8
20201205040543 44 9 6.0 25.0 0.00 0.00 0.00 49 1026.4
20201205035544 45 66 6.0 23.0 0.00 0.00 0.00 48 1026.4
20201205034541 44 50 9.0 23.0 0.00 0.00 0.00 49 1026.8
20201205033541 44 77 7.0 23.0 0.00 0.00 0.00 49 1026.8
20201205032544 44 79 7.0 23.0 0.00 0.00 0.00 49 1026.4
20201205031540 45 58 14.0 25.0 0.00 0.00 0.00 47 1026.4
20201205030540 45 41 13.0 25.0 0.00 0.00 0.00 46 1026.1
20201205025540 45 7 17.0 28.0 0.00 0.00 0.00 45 1026.4
20201205024538 45 69 7.0 25.0 0.00 0.00 0.00 45 1026.8
20201205023538 46 15 9.0 28.0 0.00 0.00 0.00 44 1026.8
20201205022539 46 52 16.0 30.0 0.00 0.00 0.00 45 1026.4
20201205021537 46 65 6.0 23.0 0.00 0.00 0.00 45 1026.4
20201205020537 46 44 6.0 30.0 0.00 0.00 0.00 45 1026.4
20201205015537 46 69 6.0 28.0 0.00 0.00 0.00 45 1026.4
20201205014537 47 95 2.0 23.0 0.00 0.00 0.00 45 1026.1
20201205013534 47 57 2.0 17.0 0.00 0.00 0.00 45 1026.4
20201205012537 47 71 6.0 28.0 0.00 0.00 0.00 44 1025.7
20201205011542 47 62 6.0 20.0 0.00 0.00 0.00 44 1025.7
20201205010534 48 347 14.0 28.0 0.00 0.00 0.00 44 1025.7
20201205005536 48 83 2.0 23.0 0.00 0.00 0.00 44 1025.4
20201205004533 48 62 7.0 28.0 0.00 0.00 0.00 44 1025.7
20201205003611 48 69 5.0 20.0 0.00 0.00 0.00 44 1025.4
20201205002539 49 54 14.0 20.0 0.00 0.00 0.00 42 1025.4
20201205001601 49 82 6.0 23.0 0.00 0.00 0.00 42 1025.1
20201205000544 49 51 2.0 25.0 0.00 0.00 0.00 41 1025.1
20201204235530 50 67 16.0 28.0 0.00 0.00 0.00 41 1025.1
20201204234530 50 65 14.0 23.0 0.00 0.00 0.00 40 1025.1
20201204233537 50 65 11.0 25.0 0.00 0.00 0.00 40 1025.4
20201204232531 51 46 3.0 28.0 0.00 0.00 0.00 39 1025.7
20201204231529 51 43 8.0 23.0 0.00 0.00 0.00 38 1025.7
20201204230528 51 27 5.0 20.0 0.00 0.00 0.00 38 1026.1
20201204225528 52 90 6.0 28.0 0.00 0.00 0.00 37 1026.1
20201204224527 52 350 11.0 20.0 0.00 0.00 0.00 35 1026.4
20201204223527 52 62 5.0 25.0 0.00 0.00 0.00 35 1026.1
20201204222526 53 123 3.0 28.0 0.00 0.00 0.00 33 1026.1
20201204221533 53 100 19.0 25.0 0.00 0.00 0.00 33 1026.8
20201204220546 53 28 10.0 20.0 0.00 0.00 0.00 33 1026.8
20201204215545 53 47 8.0 20.0 0.00 0.00 0.00 33 1027.1
20201204214546 53 82 9.0 17.0 0.00 0.00 0.00 34 1027.1
20201204213523 53 23 6.0 20.0 0.00 0.00 0.00 34 1027.1
20201204212522 53 119 4.0 20.0 0.00 0.00 0.00 35 1027.8
20201204211530 52 56 9.0 13.0 0.00 0.00 0.00 36 1027.4
20201204210523 51 19 4.0 23.0 0.00 0.00 0.00 37 1028.1
20201204205522 51 78 5.0 25.0 0.00 0.00 0.00 37 1028.1
20201204204520 52 57 17.0 23.0 0.00 0.00 0.00 35 1028.4
20201204203519 52 47 9.0 17.0 0.00 0.00 0.00 37 1028.4
20201204202519 51 55 8.0 20.0 0.00 0.00 0.00 38 1029.1
20201204201615 51 73 7.0 15.0 0.00 0.00 0.00 39 1029.1
20201204200541 51 73 2.0 15.0 0.00 0.00 0.00 41 1029.5
20201204195518 49 235 6.0 10.0 0.00 0.00 0.00 49 1029.5
20201204194518 48 157 0.0 15.0 0.00 0.00 0.00 52 1030.1
20201204193518 47 8 2.0 10.0 0.00 0.00 0.00 54 1030.1
20201204192518 46 20 1.0 10.0 0.00 0.00 0.00 55 1030.5
20201204191523 46 17 0.0 5.0 0.00 0.00 0.00 57 1030.5
20201204190514 45 39 1.0 15.0 0.00 0.00 0.00 58 1030.5
20201204185518 44 344 3.0 13.0 0.00 0.00 0.00 60 1030.5
20201204184517 44 327 2.0 13.0 0.00 0.00 0.00 60 1031.2
20201204183518 44 329 5.0 13.0 0.00 0.00 0.00 58 1030.8
20201204182517 45 315 6.0 10.0 0.00 0.00 0.00 53 1030.8
20201204181534 46 16 3.0 17.0 0.00 0.00 0.00 48 1030.8
20201204180519 47 340 6.0 17.0 0.00 0.00 0.00 48 1031.2
20201204175539 46 350 8.0 13.0 0.00 0.00 0.00 49 1031.2
20201204174519 46 354 3.0 8.0 0.00 0.00 0.00 49 1031.2
20201204173533 45 48 5.0 8.0 0.00 0.00 0.00 51 1030.5
20201204172521 44 24 0.0 5.0 0.00 0.00 0.00 56 1030.5
20201204171526 43 70 0.0 5.0 0.00 0.00 0.00 59 1030.8
20201204170519 42 342 0.0 8.0 0.00 0.00 0.00 63 1030.8
20201204165523 41 163 0.0 8.0 0.00 0.00 0.00 70 1031.2
20201204164527 39 81 0.0 2.0 0.00 0.00 0.00 81 1031.2
20201204163516 36 203 0.0 0.0 0.00 0.00 0.00 78 1031.2
20201204162512 35 170 0.0 0.0 0.00 0.00 0.00 78 1031.2
20201204161510 35 182 0.0 0.0 0.00 0.00 0.00 77 1031.2
20201204160515 36 191 0.0 2.0 0.00 0.00 0.00 76 1031.5
20201204155510 36 245 0.0 5.0 0.00 0.00 0.00 76 1031.8
20201204154516 37 64 1.0 5.0 0.00 0.00 0.00 77 1031.8
20201204153513 36 58 0.0 8.0 0.00 0.00 0.00 77 1032.2
20201204152519 37 69 5.0 8.0 0.00 0.00 0.00 78 1032.2
20201204151525 36 152 0.0 2.0 0.00 0.00 0.00 77 1032.2
20201204150510 37 90 0.0 5.0 0.00 0.00 0.00 78 1032.2
20201204145511 36 142 0.0 2.0 0.00 0.00 0.00 79 1032.2
20201204144517 36 181 0.0 0.0 0.00 0.00 0.00 81 1032.2
20201204143500 35 188 0.0 2.0 0.00 0.00 0.00 84 1031.8
20201204142509 35 227 0.0 8.0 0.00 0.00 0.00 87 1031.8
20201204141508 32 169 0.0 0.0 0.00 0.00 0.00 86 1031.5
20201204140458 32 185 0.0 0.0 0.00 0.00 0.00 86 1030.8
20201204135500 33 169 0.0 0.0 0.00 0.00 0.00 86 1030.8
20201204134458 33 169 0.0 0.0 0.00 0.00 0.00 86 1030.5
20201204133509 31 189 0.0 0.0 0.00 0.00 0.00 85 1030.5
20201204132500 32 213 0.0 0.0 0.00 0.00 0.00 84 1030.1
20201204131457 32 203 0.0 0.0 0.00 0.00 0.00 84 1030.1
20201204130455 32 181 0.0 0.0 0.00 0.00 0.00 83 1030.5
20201204125457 32 180 0.0 0.0 0.00 0.00 0.00 81 1030.1
20201204124458 33 183 0.0 0.0 0.00 0.00 0.00 80 1030.1
20201204123454 33 172 0.0 0.0 0.00 0.00 0.00 79 1030.1